sensor_id;sensor_type;location;lat;lon;timestamp;pressure;altitude;pressure_sealevel;temperature;humidity
5703;BME280;2876;51.738;10.050;2022-10-17T00:04:00;99666.97;;;14.88;100.00
5703;BME280;2876;51.738;10.050;2022-10-17T00:10:04;99652.69;;;14.81;100.00
5703;BME280;2876;51.738;10.050;2022-10-17T00:16:07;99664.69;;;14.85;100.00
5703;BME280;2876;51.738;10.050;2022-10-17T00:22:13;99658.91;;;14.81;100.00
5703;BME280;2876;51.738;10.050;2022-10-17T00:28:15;99667.09;;;14.68;100.00
5703;BME280;2876;51.738;10.050;2022-10-17T00:34:18;99658.84;;;14.63;100.00
5703;BME280;2876;51.738;10.050;2022-10-17T00:40:20;99667.59;;;14.58;100.00
5703;BME280;2876;51.738;10.050;2022-10-17T00:46:26;99679.97;;;14.66;100.00
5703;BME280;2876;51.738;10.050;2022-10-17T00:52:29;99677.59;;;14.44;100.00
5703;BME280;2876;51.738;10.050;2022-10-17T00:58:32;99680.69;;;14.48;100.00
5703;BME280;2876;51.738;10.050;2022-10-17T01:04:36;99682.38;;;14.42;100.00
5703;BME280;2876;51.738;10.050;2022-10-17T01:11:21;99685.69;;;14.44;100.00
5703;BME280;2876;51.738;10.050;2022-10-17T01:24:13;99686.84;;;14.17;100.00
5703;BME280;2876;51.738;10.050;2022-10-17T01:37:35;99685.66;;;14.06;100.00
5703;BME280;2876;51.738;10.050;2022-10-17T01:43:59;99681.91;;;14.07;100.00
5703;BME280;2876;51.738;10.050;2022-10-17T01:50:11;99688.97;;;14.02;100.00
5703;BME280;2876;51.738;10.050;2022-10-17T01:56:15;99679.47;;;13.99;100.00
5703;BME280;2876;51.738;10.050;2022-10-17T02:02:34;99664.06;;;14.13;100.00
5703;BME280;2876;51.738;10.050;2022-10-17T02:08:47;99659.63;;;14.25;100.00
5703;BME280;2876;51.738;10.050;2022-10-17T02:21:18;99652.16;;;14.27;100.00
5703;BME280;2876;51.738;10.050;2022-10-17T02:27:58;99660.63;;;13.86;100.00
5703;BME280;2876;51.738;10.050;2022-10-17T02:34:25;99655.88;;;13.81;100.00
5703;BME280;2876;51.738;10.050;2022-10-17T02:40:30;99647.16;;;13.79;100.00
5703;BME280;2876;51.738;10.050;2022-10-17T02:46:41;99644.00;;;13.89;100.00
5703;BME280;2876;51.738;10.050;2022-10-17T02:53:03;99651.22;;;14.08;100.00
5703;BME280;2876;51.738;10.050;2022-10-17T02:59:08;99644.97;;;14.08;100.00
5703;BME280;2876;51.738;10.050;2022-10-17T03:05:27;99659.84;;;14.24;100.00
5703;BME280;2876;51.738;10.050;2022-10-17T03:11:29;99652.28;;;14.39;100.00
5703;BME280;2876;51.738;10.050;2022-10-17T03:17:31;99670.97;;;14.40;100.00
5703;BME280;2876;51.738;10.050;2022-10-17T03:23:33;99665.81;;;14.32;100.00
5703;BME280;2876;51.738;10.050;2022-10-17T03:29:35;99656.75;;;14.20;100.00
5703;BME280;2876;51.738;10.050;2022-10-17T03:35:38;99652.81;;;14.16;100.00
5703;BME280;2876;51.738;10.050;2022-10-17T03:41:43;99656.34;;;14.16;100.00
5703;BME280;2876;51.738;10.050;2022-10-17T03:47:45;99670.00;;;14.28;100.00
5703;BME280;2876;51.738;10.050;2022-10-17T03:53:47;99664.44;;;14.16;100.00
5703;BME280;2876;51.738;10.050;2022-10-17T03:59:49;99673.03;;;14.38;100.00
5703;BME280;2876;51.738;10.050;2022-10-17T04:05:53;99678.50;;;14.25;100.00
5703;BME280;2876;51.738;10.050;2022-10-17T04:11:55;99674.22;;;14.17;100.00
5703;BME280;2876;51.738;10.050;2022-10-17T04:17:57;99678.50;;;14.25;100.00
5703;BME280;2876;51.738;10.050;2022-10-17T04:23:59;99678.97;;;14.22;100.00
5703;BME280;2876;51.738;10.050;2022-10-17T04:30:02;99681.59;;;14.29;100.00
5703;BME280;2876;51.738;10.050;2022-10-17T04:36:10;99674.91;;;14.38;100.00
5703;BME280;2876;51.738;10.050;2022-10-17T04:42:13;99666.59;;;14.46;100.00
5703;BME280;2876;51.738;10.050;2022-10-17T04:48:14;99682.69;;;14.66;100.00
5703;BME280;2876;51.738;10.050;2022-10-17T04:54:16;99702.13;;;14.81;100.00
5703;BME280;2876;51.738;10.050;2022-10-17T05:00:20;99695.44;;;14.45;100.00
5703;BME280;2876;51.738;10.050;2022-10-17T05:06:25;99700.91;;;14.32;100.00
5703;BME280;2876;51.738;10.050;2022-10-17T05:12:28;99706.44;;;13.99;100.00
5703;BME280;2876;51.738;10.050;2022-10-17T05:18:31;99693.69;;;14.19;100.00
5703;BME280;2876;51.738;10.050;2022-10-17T05:24:33;99716.69;;;14.35;100.00
5703;BME280;2876;51.738;10.050;2022-10-17T05:30:36;99710.75;;;14.07;100.00
5703;BME280;2876;51.738;10.050;2022-10-17T05:36:38;99715.13;;;14.01;100.00
5703;BME280;2876;51.738;10.050;2022-10-17T05:42:46;99709.97;;;13.93;100.00
5703;BME280;2876;51.738;10.050;2022-10-17T05:48:50;99724.88;;;14.09;100.00
5703;BME280;2876;51.738;10.050;2022-10-17T05:54:53;99728.75;;;14.26;100.00
5703;BME280;2876;51.738;10.050;2022-10-17T06:01:01;99736.00;;;14.26;100.00
5703;BME280;2876;51.738;10.050;2022-10-17T06:07:05;99736.00;;;14.26;100.00
5703;BME280;2876;51.738;10.050;2022-10-17T06:13:10;99740.09;;;14.41;100.00
5703;BME280;2876;51.738;10.050;2022-10-17T06:19:12;99747.66;;;14.71;100.00
5703;BME280;2876;51.738;10.050;2022-10-17T06:25:15;99754.66;;;14.85;100.00
5703;BME280;2876;51.738;10.050;2022-10-17T06:31:17;99751.97;;;14.79;100.00
5703;BME280;2876;51.738;10.050;2022-10-17T06:37:19;99745.34;;;15.13;100.00
5703;BME280;2876;51.738;10.050;2022-10-17T06:43:21;99758.78;;;15.19;100.00
5703;BME280;2876;51.738;10.050;2022-10-17T06:49:28;99763.69;;;15.29;100.00
5703;BME280;2876;51.738;10.050;2022-10-17T06:55:32;99786.28;;;15.66;100.00
5703;BME280;2876;51.738;10.050;2022-10-17T07:01:35;99780.69;;;15.68;100.00
5703;BME280;2876;51.738;10.050;2022-10-17T07:07:38;99780.59;;;16.00;100.00
5703;BME280;2876;51.738;10.050;2022-10-17T07:13:46;99776.06;;;16.12;100.00
5703;BME280;2876;51.738;10.050;2022-10-17T07:19:48;99800.38;;;16.18;100.00
5703;BME280;2876;51.738;10.050;2022-10-17T07:25:52;99811.06;;;16.32;100.00
5703;BME280;2876;51.738;10.050;2022-10-17T07:31:59;99800.25;;;16.50;100.00
5703;BME280;2876;51.738;10.050;2022-10-17T07:38:01;99809.09;;;16.57;100.00
5703;BME280;2876;51.738;10.050;2022-10-17T07:44:03;99802.28;;;17.03;98.59
5703;BME280;2876;51.738;10.050;2022-10-17T07:50:06;99797.38;;;17.65;94.07
5703;BME280;2876;51.738;10.050;2022-10-17T07:56:08;99793.06;;;17.88;91.51
5703;BME280;2876;51.738;10.050;2022-10-17T08:02:21;99786.75;;;18.46;89.03
5703;BME280;2876;51.738;10.050;2022-10-17T08:08:24;99803.09;;;18.74;87.64
5703;BME280;2876;51.738;10.050;2022-10-17T08:14:26;99806.47;;;19.22;85.62
5703;BME280;2876;51.738;10.050;2022-10-17T08:20:28;99801.56;;;19.07;88.60
5703;BME280;2876;51.738;10.050;2022-10-17T08:26:30;99813.38;;;19.58;85.13
5703;BME280;2876;51.738;10.050;2022-10-17T08:32:32;99807.31;;;19.56;85.08
5703;BME280;2876;51.738;10.050;2022-10-17T08:38:35;99807.78;;;19.65;84.69
5703;BME280;2876;51.738;10.050;2022-10-17T08:51:16;99803.75;;;20.23;80.53
5703;BME280;2876;51.738;10.050;2022-10-17T08:57:20;99803.06;;;20.33;81.97
5703;BME280;2876;51.738;10.050;2022-10-17T09:16:38;99820.03;;;21.27;79.34
5703;BME280;2876;51.738;10.050;2022-10-17T09:23:26;99818.88;;;21.45;77.61
5703;BME280;2876;51.738;10.050;2022-10-17T09:29:24;99811.00;;;21.81;75.42
5703;BME280;2876;51.738;10.050;2022-10-17T09:35:33;99808.97;;;22.03;75.88
5703;BME280;2876;51.738;10.050;2022-10-17T09:41:49;99817.66;;;22.38;73.95
5703;BME280;2876;51.738;10.050;2022-10-17T09:48:14;99823.56;;;22.72;72.17
5703;BME280;2876;51.738;10.050;2022-10-17T09:55:04;99820.59;;;22.89;71.93
5703;BME280;2876;51.738;10.050;2022-10-17T10:00:47;99825.91;;;23.16;71.54
5703;BME280;2876;51.738;10.050;2022-10-17T10:07:16;99835.00;;;23.32;71.19
5703;BME280;2876;51.738;10.050;2022-10-17T10:13:26;99826.56;;;23.79;68.79
5703;BME280;2876;51.738;10.050;2022-10-17T10:25:35;99837.81;;;23.67;69.08
5703;BME280;2876;51.738;10.050;2022-10-17T10:31:38;99826.78;;;23.47;67.82
5703;BME280;2876;51.738;10.050;2022-10-17T10:37:49;99818.03;;;23.60;66.81
5703;BME280;2876;51.738;10.050;2022-10-17T10:43:54;99812.59;;;23.91;66.03
5703;BME280;2876;51.738;10.050;2022-10-17T10:50:32;99818.63;;;23.67;67.40
5703;BME280;2876;51.738;10.050;2022-10-17T10:56:49;99808.47;;;23.98;64.46
5703;BME280;2876;51.738;10.050;2022-10-17T11:03:24;99816.13;;;24.07;65.29
5703;BME280;2876;51.738;10.050;2022-10-17T11:09:31;99811.63;;;24.62;65.28
5703;BME280;2876;51.738;10.050;2022-10-17T11:15:46;99824.06;;;25.03;59.77
5703;BME280;2876;51.738;10.050;2022-10-17T11:22:10;99822.81;;;24.80;60.91
5703;BME280;2876;51.738;10.050;2022-10-17T11:28:22;99831.59;;;24.77;57.60
5703;BME280;2876;51.738;10.050;2022-10-17T11:34:27;99843.38;;;24.78;59.42
5703;BME280;2876;51.738;10.050;2022-10-17T11:40:37;99829.38;;;24.85;57.99
5703;BME280;2876;51.738;10.050;2022-10-17T11:53:16;99825.56;;;24.70;55.62
5703;BME280;2876;51.738;10.050;2022-10-17T12:06:04;99795.94;;;24.72;56.03
5703;BME280;2876;51.738;10.050;2022-10-17T12:12:26;99809.75;;;25.17;54.00
5703;BME280;2876;51.738;10.050;2022-10-17T12:18:31;99794.63;;;25.88;51.94
5703;BME280;2876;51.738;10.050;2022-10-17T12:24:54;99796.19;;;26.76;49.74
5703;BME280;2876;51.738;10.050;2022-10-17T12:38:26;99792.28;;;26.29;50.76
5703;BME280;2876;51.738;10.050;2022-10-17T12:57:30;99792.28;;;25.76;51.98
5703;BME280;2876;51.738;10.050;2022-10-17T13:03:42;99803.75;;;25.49;52.42
5703;BME280;2876;51.738;10.050;2022-10-17T13:09:47;99825.69;;;25.04;54.34
5703;BME280;2876;51.738;10.050;2022-10-17T13:15:53;99816.53;;;25.64;52.08
5703;BME280;2876;51.738;10.050;2022-10-17T13:21:58;99844.91;;;26.75;49.34
5703;BME280;2876;51.738;10.050;2022-10-17T13:28:12;99857.06;;;27.36;46.80
5703;BME280;2876;51.738;10.050;2022-10-17T13:34:25;99850.34;;;27.23;47.68
5703;BME280;2876;51.738;10.050;2022-10-17T13:40:29;99845.50;;;26.72;48.63
5703;BME280;2876;51.738;10.050;2022-10-17T13:46:51;99838.72;;;26.06;49.88
5703;BME280;2876;51.738;10.050;2022-10-17T13:53:23;99841.94;;;25.90;52.12
5703;BME280;2876;51.738;10.050;2022-10-17T13:59:39;99834.28;;;25.82;52.19
5703;BME280;2876;51.738;10.050;2022-10-17T14:06:15;99845.19;;;25.52;53.42
5703;BME280;2876;51.738;10.050;2022-10-17T14:12:19;99843.50;;;25.56;52.57
5703;BME280;2876;51.738;10.050;2022-10-17T14:18:31;99846.22;;;25.62;53.62
5703;BME280;2876;51.738;10.050;2022-10-17T14:24:37;99841.09;;;25.50;53.74
5703;BME280;2876;51.738;10.050;2022-10-17T14:30:45;99845.84;;;25.39;54.47
5703;BME280;2876;51.738;10.050;2022-10-17T14:37:10;99860.09;;;24.87;56.47
5703;BME280;2876;51.738;10.050;2022-10-17T14:43:20;99872.75;;;24.77;55.92
5703;BME280;2876;51.738;10.050;2022-10-17T14:49:31;99868.25;;;25.12;55.52
5703;BME280;2876;51.738;10.050;2022-10-17T14:55:35;99868.38;;;24.66;56.62
5703;BME280;2876;51.738;10.050;2022-10-17T15:01:37;99878.91;;;24.08;59.63
5703;BME280;2876;51.738;10.050;2022-10-17T15:07:40;99886.56;;;24.06;60.22
5703;BME280;2876;51.738;10.050;2022-10-17T15:13:45;99884.38;;;23.98;59.89
5703;BME280;2876;51.738;10.050;2022-10-17T15:26:14;99891.53;;;23.99;59.90
5703;BME280;2876;51.738;10.050;2022-10-17T15:32:16;99897.81;;;23.79;61.37
5703;BME280;2876;51.738;10.050;2022-10-17T15:38:18;99899.13;;;23.61;61.49
5703;BME280;2876;51.738;10.050;2022-10-17T15:44:20;99901.75;;;23.25;63.11
5703;BME280;2876;51.738;10.050;2022-10-17T15:50:22;99912.06;;;22.98;64.00
5703;BME280;2876;51.738;10.050;2022-10-17T15:56:29;99916.28;;;22.68;64.82
5703;BME280;2876;51.738;10.050;2022-10-17T16:02:32;99926.56;;;22.51;66.06
5703;BME280;2876;51.738;10.050;2022-10-17T16:08:34;99947.91;;;22.17;67.17
5703;BME280;2876;51.738;10.050;2022-10-17T16:14:36;99946.00;;;21.90;68.50
5703;BME280;2876;51.738;10.050;2022-10-17T16:20:38;99951.56;;;21.73;70.03
5703;BME280;2876;51.738;10.050;2022-10-17T16:26:40;99961.13;;;21.49;72.22
5703;BME280;2876;51.738;10.050;2022-10-17T16:32:43;99961.84;;;21.39;72.59
5703;BME280;2876;51.738;10.050;2022-10-17T16:38:46;99957.66;;;21.32;72.40
5703;BME280;2876;51.738;10.050;2022-10-17T16:44:49;99972.69;;;21.34;71.94
5703;BME280;2876;51.738;10.050;2022-10-17T16:50:51;99978.84;;;21.46;71.97
5703;BME280;2876;51.738;10.050;2022-10-17T16:56:53;99988.81;;;21.58;71.69
5703;BME280;2876;51.738;10.050;2022-10-17T17:02:55;99976.00;;;21.36;72.42
5703;BME280;2876;51.738;10.050;2022-10-17T17:08:57;99989.50;;;21.48;71.76
5703;BME280;2876;51.738;10.050;2022-10-17T17:14:59;99998.88;;;21.57;72.53
5703;BME280;2876;51.738;10.050;2022-10-17T17:21:05;100005.00;;;21.25;73.18
5703;BME280;2876;51.738;10.050;2022-10-17T17:27:07;100005.66;;;21.11;73.91
5703;BME280;2876;51.738;10.050;2022-10-17T17:33:14;100017.25;;;21.01;74.65
5703;BME280;2876;51.738;10.050;2022-10-17T17:39:16;100026.56;;;21.05;74.40
5703;BME280;2876;51.738;10.050;2022-10-17T17:45:18;100037.06;;;21.13;74.46
5703;BME280;2876;51.738;10.050;2022-10-17T17:51:23;100027.00;;;20.80;75.51
5703;BME280;2876;51.738;10.050;2022-10-17T17:57:29;100040.16;;;20.83;75.41
5703;BME280;2876;51.738;10.050;2022-10-17T18:03:31;100051.75;;;20.90;75.38
5703;BME280;2876;51.738;10.050;2022-10-17T18:09:33;100048.59;;;20.65;76.61
5703;BME280;2876;51.738;10.050;2022-10-17T18:15:35;100042.41;;;20.69;76.03
5703;BME280;2876;51.738;10.050;2022-10-17T18:21:41;100056.22;;;20.63;76.72
5703;BME280;2876;51.738;10.050;2022-10-17T18:27:46;100051.09;;;20.49;77.20
5703;BME280;2876;51.738;10.050;2022-10-17T18:33:54;100069.72;;;20.41;77.88
5703;BME280;2876;51.738;10.050;2022-10-17T18:39:57;100074.25;;;20.35;78.78
5703;BME280;2876;51.738;10.050;2022-10-17T18:46:17;100074.50;;;20.05;79.82
5703;BME280;2876;51.738;10.050;2022-10-17T18:52:20;100067.75;;;20.08;80.34
5703;BME280;2876;51.738;10.050;2022-10-17T18:58:22;100067.75;;;20.08;80.37
5703;BME280;2876;51.738;10.050;2022-10-17T19:04:24;100063.81;;;19.75;82.17
5703;BME280;2876;51.738;10.050;2022-10-17T19:10:26;100063.97;;;19.57;83.72
5703;BME280;2876;51.738;10.050;2022-10-17T19:16:34;100066.72;;;19.45;84.75
5703;BME280;2876;51.738;10.050;2022-10-17T19:28:54;100088.75;;;18.96;87.08
5703;BME280;2876;51.738;10.050;2022-10-17T19:34:57;100100.81;;;19.00;86.99
5703;BME280;2876;51.738;10.050;2022-10-17T19:40:59;100101.97;;;18.93;87.72
5703;BME280;2876;51.738;10.050;2022-10-17T19:47:06;100110.53;;;18.66;89.17
5703;BME280;2876;51.738;10.050;2022-10-17T19:53:08;100110.16;;;18.51;90.45
5703;BME280;2876;51.738;10.050;2022-10-17T19:59:12;100104.03;;;18.56;90.68
5703;BME280;2876;51.738;10.050;2022-10-17T20:05:15;100102.44;;;18.48;91.81
5703;BME280;2876;51.738;10.050;2022-10-17T20:11:23;100107.38;;;18.39;92.19
5703;BME280;2876;51.738;10.050;2022-10-17T20:17:25;100120.06;;;18.57;92.31
5703;BME280;2876;51.738;10.050;2022-10-17T20:23:28;100124.56;;;18.51;92.40
5703;BME280;2876;51.738;10.050;2022-10-17T20:29:29;100131.50;;;18.36;93.05
5703;BME280;2876;51.738;10.050;2022-10-17T20:35:31;100128.97;;;18.34;93.53
5703;BME280;2876;51.738;10.050;2022-10-17T20:41:34;100134.41;;;18.34;93.67
5703;BME280;2876;51.738;10.050;2022-10-17T20:47:36;100140.03;;;18.21;95.16
5703;BME280;2876;51.738;10.050;2022-10-17T20:53:48;100152.97;;;18.37;94.18
5703;BME280;2876;51.738;10.050;2022-10-17T20:59:51;100145.34;;;18.46;93.87
5703;BME280;2876;51.738;10.050;2022-10-17T21:05:52;100151.09;;;18.68;93.49
5703;BME280;2876;51.738;10.050;2022-10-17T21:11:55;100176.81;;;18.54;93.91
5703;BME280;2876;51.738;10.050;2022-10-17T21:17:57;100194.47;;;18.44;93.86
5703;BME280;2876;51.738;10.050;2022-10-17T21:24:04;100191.78;;;18.44;94.09
5703;BME280;2876;51.738;10.050;2022-10-17T21:36:28;100200.06;;;18.49;95.02
5703;BME280;2876;51.738;10.050;2022-10-17T21:42:30;100206.91;;;18.52;94.71
5703;BME280;2876;51.738;10.050;2022-10-17T21:48:34;100205.44;;;18.68;94.85
5703;BME280;2876;51.738;10.050;2022-10-17T21:54:36;100207.94;;;18.69;95.02
5703;BME280;2876;51.738;10.050;2022-10-17T22:00:38;100211.66;;;18.87;94.19
5703;BME280;2876;51.738;10.050;2022-10-17T22:06:42;100218.38;;;18.72;94.59
5703;BME280;2876;51.738;10.050;2022-10-17T22:12:44;100211.94;;;18.67;95.38
5703;BME280;2876;51.738;10.050;2022-10-17T22:18:46;100227.19;;;18.68;95.78
5703;BME280;2876;51.738;10.050;2022-10-17T22:24:48;100225.75;;;18.65;96.09
5703;BME280;2876;51.738;10.050;2022-10-17T22:30:51;100219.78;;;18.57;96.82
5703;BME280;2876;51.738;10.050;2022-10-17T22:36:53;100221.94;;;18.55;97.12
5703;BME280;2876;51.738;10.050;2022-10-17T22:42:55;100216.56;;;18.48;97.92
5703;BME280;2876;51.738;10.050;2022-10-17T22:48:58;100228.94;;;18.44;98.05
5703;BME280;2876;51.738;10.050;2022-10-17T22:55:00;100229.13;;;18.49;98.05
5703;BME280;2876;51.738;10.050;2022-10-17T23:01:12;100229.31;;;18.47;98.22
5703;BME280;2876;51.738;10.050;2022-10-17T23:07:14;100227.69;;;18.28;99.69
5703;BME280;2876;51.738;10.050;2022-10-17T23:13:16;100231.63;;;18.32;99.72
5703;BME280;2876;51.738;10.050;2022-10-17T23:19:24;100227.00;;;18.33;99.61
5703;BME280;2876;51.738;10.050;2022-10-17T23:25:26;100220.53;;;17.97;100.00
5703;BME280;2876;51.738;10.050;2022-10-17T23:31:28;100229.97;;;18.31;99.71
5703;BME280;2876;51.738;10.050;2022-10-17T23:37:30;100246.41;;;17.81;100.00
5703;BME280;2876;51.738;10.050;2022-10-17T23:43:33;100235.84;;;17.66;100.00
5703;BME280;2876;51.738;10.050;2022-10-17T23:55:47;100240.47;;;17.41;100.00
